createdAt,value
2019-03-19T00:02:13.805Z,4.83
2019-03-19T00:04:46.897Z,4.35
2019-03-19T00:07:21.420Z,5.07
2019-03-19T00:09:52.097Z,4.37
2019-03-19T00:12:22.280Z,3.70
2019-03-19T00:14:52.450Z,3.80
2019-03-19T00:17:22.815Z,4.50
2019-03-19T00:19:53.553Z,3.90
2019-03-19T00:22:25.739Z,3.90
2019-03-19T00:24:56.351Z,4.47
2019-03-19T00:27:32.469Z,4.70
2019-03-19T00:30:04.106Z,5.07
2019-03-19T00:32:34.513Z,4.00
2019-03-19T00:35:05.517Z,4.60
2019-03-19T00:37:35.859Z,4.45
2019-03-19T00:40:06.834Z,3.73
2019-03-19T00:42:37.039Z,3.97
2019-03-19T00:45:08.193Z,4.50
2019-03-19T00:47:38.587Z,4.13
2019-03-19T00:50:13.086Z,4.50
2019-03-19T00:52:49.472Z,4.22
2019-03-19T00:55:19.660Z,4.90
2019-03-19T00:57:49.917Z,4.47
2019-03-19T01:00:22.194Z,4.00
2019-03-19T01:02:55.308Z,4.80
2019-03-19T01:05:25.553Z,4.40
2019-03-19T01:07:55.912Z,4.17
2019-03-19T01:10:27.706Z,3.67
2019-03-19T01:12:59.470Z,3.90
2019-03-19T01:15:32.182Z,3.50
2019-03-19T01:18:02.430Z,4.50
2019-03-19T01:20:32.683Z,3.63
2019-03-19T01:23:02.943Z,3.90
2019-03-19T01:25:35.168Z,4.20
2019-03-19T01:28:07.261Z,4.27
2019-03-19T01:30:37.594Z,3.58
2019-03-19T01:33:08.114Z,3.80
2019-03-19T01:35:38.557Z,4.20
2019-03-19T01:38:10.415Z,3.90
2019-03-19T01:40:40.810Z,4.00
2019-03-19T01:43:11.200Z,3.70
2019-03-19T01:45:43.097Z,3.40
2019-03-19T01:48:16.726Z,2.95
2019-03-19T01:50:46.905Z,2.70
2019-03-19T01:53:20.553Z,3.40
2019-03-19T01:55:52.684Z,3.00
2019-03-19T01:58:23.047Z,3.62
2019-03-19T02:00:56.016Z,3.40
2019-03-19T02:03:26.439Z,3.10
2019-03-19T02:05:56.634Z,3.40
2019-03-19T02:08:28.105Z,3.40
2019-03-19T02:10:58.404Z,2.80
2019-03-19T02:13:28.610Z,3.87
2019-03-19T02:16:00.367Z,2.67
2019-03-19T02:18:31.590Z,3.03
2019-03-19T02:21:01.859Z,3.33
2019-03-19T02:23:32.078Z,3.45
2019-03-19T02:26:15.608Z,3.20
2019-03-19T02:28:39.101Z,2.77
2019-03-19T02:31:09.301Z,2.60
2019-03-19T02:33:39.806Z,2.80
2019-03-19T02:36:12.596Z,3.03
2019-03-19T02:38:42.897Z,2.90
2019-03-19T02:41:16.086Z,3.03
2019-03-19T02:43:47.863Z,2.23
2019-03-19T02:46:18.521Z,2.80
2019-03-19T02:48:48.720Z,2.57
2019-03-19T02:51:18.860Z,2.53
2019-03-19T02:53:49.038Z,2.70
2019-03-19T02:56:32.545Z,3.10
2019-03-19T02:58:53.095Z,3.03
2019-03-19T03:01:24.496Z,2.70
2019-03-19T03:03:54.873Z,2.97
2019-03-19T03:06:25.128Z,2.57
2019-03-19T03:08:55.248Z,2.63
2019-03-19T03:11:25.591Z,2.53
2019-03-19T03:13:56.255Z,2.83
2019-03-19T03:16:26.508Z,2.87
2019-03-19T03:18:56.942Z,2.40
2019-03-19T03:21:27.064Z,2.20
2019-03-19T03:23:57.225Z,2.30
2019-03-19T03:26:27.409Z,2.43
2019-03-19T03:28:59.334Z,2.90
2019-03-19T03:31:29.833Z,2.63
2019-03-19T03:34:00.218Z,2.17
2019-03-19T03:36:30.924Z,2.57
2019-03-19T03:39:01.145Z,2.60
2019-03-19T03:41:33.066Z,3.10
2019-03-19T03:44:03.764Z,2.80
2019-03-19T03:46:33.911Z,2.93
2019-03-19T03:49:04.117Z,3.10
2019-03-19T03:51:34.313Z,3.10
2019-03-19T03:54:04.534Z,3.30
2019-03-19T03:56:36.740Z,2.73
2019-03-19T03:59:07.110Z,3.20
2019-03-19T04:01:37.263Z,3.42
2019-03-19T04:04:07.652Z,3.55
2019-03-19T04:06:38.200Z,2.90
2019-03-19T04:09:10.598Z,3.17
2019-03-19T04:11:41.287Z,3.20
2019-03-19T04:14:11.779Z,3.30
2019-03-19T04:16:41.934Z,3.03
2019-03-19T04:19:12.826Z,3.30
2019-03-19T04:21:44.640Z,3.92
2019-03-19T04:24:16.646Z,4.20
2019-03-19T04:26:52.599Z,4.30
2019-03-19T04:29:22.830Z,4.10
2019-03-19T04:31:53.595Z,3.35
2019-03-19T04:34:24.271Z,4.30
2019-03-19T04:36:57.178Z,3.73
2019-03-19T04:39:27.468Z,3.55
2019-03-19T04:41:58.001Z,3.43
2019-03-19T04:44:28.774Z,3.80
2019-03-19T04:46:59.046Z,2.87
2019-03-19T04:49:29.393Z,2.87
2019-03-19T04:51:59.588Z,4.27
2019-03-19T04:54:29.840Z,3.47
2019-03-19T04:57:02.220Z,3.27
2019-03-19T04:59:34.037Z,3.07
2019-03-19T05:02:04.414Z,3.13
2019-03-19T05:04:35.163Z,3.77
2019-03-19T05:07:08.551Z,4.67
2019-03-19T05:09:38.756Z,3.10
2019-03-19T05:12:08.941Z,3.83
2019-03-19T05:14:39.132Z,4.00
2019-03-19T05:17:09.305Z,3.63
2019-03-19T05:19:39.598Z,3.37
2019-03-19T05:22:09.943Z,3.30
2019-03-19T05:24:40.568Z,3.53
2019-03-19T05:27:13.905Z,3.60
2019-03-19T05:29:44.130Z,3.60
2019-03-19T05:32:16.013Z,3.50
2019-03-19T05:34:46.374Z,3.08
2019-03-19T05:37:16.571Z,3.23
2019-03-19T05:39:47.177Z,3.70
2019-03-19T05:42:17.348Z,3.60
2019-03-19T05:44:47.556Z,3.63
2019-03-19T05:47:18.213Z,3.40
2019-03-19T05:49:50.163Z,3.90
2019-03-19T05:52:20.608Z,3.23
2019-03-19T05:54:50.856Z,4.23
2019-03-19T05:57:21.090Z,3.53
2019-03-19T05:59:51.388Z,3.87
2019-03-19T06:02:21.650Z,4.00
2019-03-19T06:04:54.350Z,4.60
2019-03-19T06:07:24.618Z,4.73
2019-03-19T06:09:59.038Z,4.60
2019-03-19T06:12:29.466Z,4.10
2019-03-19T06:15:03.058Z,4.40
2019-03-19T06:17:33.375Z,4.23
2019-03-19T06:20:04.260Z,4.37
2019-03-19T06:22:36.635Z,4.30
2019-03-19T06:25:07.802Z,4.80
2019-03-19T06:27:40.070Z,3.55
2019-03-19T06:30:13.488Z,4.37
2019-03-19T06:32:44.183Z,4.30
2019-03-19T06:35:15.422Z,4.10
2019-03-19T06:37:46.186Z,3.90
2019-03-19T06:40:22.695Z,5.00
2019-03-19T06:42:53.090Z,4.20
2019-03-19T06:45:24.644Z,3.50
2019-03-19T06:47:55.323Z,3.47
2019-03-19T06:50:28.022Z,3.87
2019-03-19T06:52:58.154Z,3.53
2019-03-19T06:55:28.728Z,3.37
2019-03-19T06:57:59.040Z,3.57
2019-03-19T07:00:32.370Z,4.27
2019-03-19T07:03:02.562Z,4.57
2019-03-19T07:05:32.730Z,4.63
2019-03-19T07:08:03.074Z,3.77
2019-03-19T07:10:33.323Z,3.50
2019-03-19T07:13:03.511Z,4.60
2019-03-19T07:15:34.177Z,4.00
2019-03-19T07:18:04.658Z,4.63
2019-03-19T07:20:34.937Z,3.60
2019-03-19T07:23:05.534Z,4.40
2019-03-19T07:25:36.058Z,4.30
2019-03-19T07:28:07.204Z,5.20
2019-03-19T07:30:37.679Z,4.73
2019-03-19T07:33:10.618Z,5.43
2019-03-19T07:35:46.952Z,4.10
2019-03-19T07:38:17.159Z,3.97
2019-03-19T07:40:54.138Z,5.20
2019-03-19T07:43:24.870Z,4.50
2019-03-19T07:45:57.675Z,4.50
2019-03-19T07:48:28.411Z,4.55
2019-03-19T07:51:02.485Z,3.30
2019-03-19T07:53:32.816Z,3.73
2019-03-19T07:56:04.785Z,4.10
2019-03-19T07:58:44.728Z,4.27
2019-03-19T08:01:08.148Z,3.87
2019-03-19T08:03:38.632Z,3.50
2019-03-19T08:06:08.833Z,3.97
2019-03-19T08:08:41.644Z,4.30
2019-03-19T08:11:13.146Z,3.80
2019-03-19T08:13:43.910Z,4.20
2019-03-19T08:16:14.526Z,4.00
2019-03-19T08:18:46.204Z,3.90
2019-03-19T08:21:16.616Z,3.40
2019-03-19T08:23:46.902Z,4.50
2019-03-19T08:26:17.111Z,3.83
2019-03-19T08:28:55.055Z,3.57
2019-03-19T08:31:19.309Z,3.10
2019-03-19T08:33:51.117Z,3.10
2019-03-19T08:36:21.611Z,2.93
2019-03-19T08:38:52.411Z,3.90
2019-03-19T08:41:23.120Z,3.80
2019-03-19T08:43:54.189Z,3.47
2019-03-19T08:46:25.631Z,3.30
2019-03-19T08:48:55.906Z,3.20
2019-03-19T08:51:26.635Z,3.83
2019-03-19T08:53:59.083Z,3.60
2019-03-19T08:56:30.149Z,4.37
2019-03-19T08:59:05.885Z,4.33
2019-03-19T09:01:32.539Z,3.50
2019-03-19T09:04:02.871Z,4.20
2019-03-19T09:06:33.595Z,3.90
2019-03-19T09:09:08.604Z,3.90
2019-03-19T09:11:38.961Z,3.53
2019-03-19T09:14:09.811Z,2.80
2019-03-19T09:16:40.790Z,3.57
2019-03-19T09:19:11.313Z,3.20
2019-03-19T09:21:42.063Z,4.10
2019-03-19T09:24:15.869Z,4.53
2019-03-19T09:26:46.725Z,5.50
2019-03-19T09:29:17.499Z,4.43
2019-03-19T09:31:48.144Z,3.50
2019-03-19T09:34:18.644Z,3.20
2019-03-19T09:36:57.378Z,3.20
2019-03-19T09:39:22.601Z,5.20
2019-03-19T09:41:53.408Z,7.03
2019-03-19T09:44:24.271Z,8.30
2019-03-19T09:46:54.614Z,8.17
2019-03-19T09:49:26.504Z,8.67
2019-03-19T09:51:57.062Z,5.90
2019-03-19T09:54:27.652Z,4.80
2019-03-19T09:56:58.225Z,5.80
2019-03-19T09:59:28.905Z,5.97
2019-03-19T10:01:59.576Z,4.23
2019-03-19T10:04:30.571Z,4.50
2019-03-19T10:07:06.281Z,4.30
2019-03-19T10:09:38.263Z,4.50
2019-03-19T10:12:10.852Z,3.47
2019-03-19T10:14:43.481Z,3.07
2019-03-19T10:17:14.201Z,3.00
2019-03-19T10:19:44.480Z,3.20
2019-03-19T10:22:15.310Z,2.30
2019-03-19T10:24:45.922Z,2.25
2019-03-19T10:27:21.440Z,1.60
2019-03-19T10:29:54.072Z,3.90
2019-03-19T10:32:24.569Z,2.00
2019-03-19T10:34:54.904Z,2.53
2019-03-19T10:37:25.825Z,2.43
2019-03-19T10:39:55.999Z,2.43
2019-03-19T10:42:26.267Z,1.90
2019-03-19T10:44:56.646Z,2.08
2019-03-19T10:47:27.234Z,1.70
2019-03-19T10:49:57.728Z,1.72
2019-03-19T10:52:28.129Z,1.80
2019-03-19T10:54:58.388Z,1.42
2019-03-19T10:57:30.308Z,1.47
2019-03-19T11:00:13.248Z,1.50
2019-03-19T11:02:47.333Z,1.67
2019-03-19T11:05:18.072Z,1.30
2019-03-19T11:07:48.604Z,1.60
2019-03-19T11:10:19.320Z,1.30
2019-03-19T11:12:51.789Z,1.75
2019-03-19T11:15:22.210Z,2.25
2019-03-19T11:17:52.522Z,2.30
2019-03-19T11:20:22.863Z,1.50
2019-03-19T11:22:53.513Z,2.50
2019-03-19T11:25:23.962Z,2.13
2019-03-19T11:27:57.216Z,2.80
2019-03-19T11:30:31.151Z,3.10
2019-03-19T11:33:01.464Z,2.50
2019-03-19T11:35:32.823Z,2.33
2019-03-19T11:38:03.274Z,2.90
2019-03-19T11:40:36.014Z,6.07
2019-03-19T11:43:06.881Z,5.97
2019-03-19T11:45:37.260Z,1.70
2019-03-19T11:48:07.564Z,1.90
2019-03-19T11:50:41.230Z,1.25
2019-03-19T11:53:11.909Z,1.70
2019-03-19T11:55:42.165Z,1.77
2019-03-19T11:58:12.672Z,1.20
2019-03-19T12:00:45.588Z,2.05
2019-03-19T12:03:16.735Z,1.70
2019-03-19T12:05:47.326Z,1.60
2019-03-19T12:08:17.595Z,4.05
2019-03-19T12:10:48.058Z,1.45
2019-03-19T12:13:19.363Z,1.85
2019-03-19T12:15:51.577Z,1.55
2019-03-19T12:18:21.888Z,1.77
2019-03-19T12:20:52.241Z,1.98
2019-03-19T12:23:23.042Z,2.92
2019-03-19T12:25:53.177Z,2.87
2019-03-19T12:28:25.450Z,4.80
2019-03-19T12:30:55.289Z,3.83
2019-03-19T12:33:25.597Z,3.47
2019-03-19T12:35:57.811Z,3.67
2019-03-19T12:38:28.067Z,3.00
2019-03-19T12:40:58.386Z,3.13
2019-03-19T12:43:28.538Z,4.00
2019-03-19T12:45:59.106Z,3.50
2019-03-19T12:48:32.286Z,3.40
2019-03-19T12:51:02.701Z,3.47
2019-03-19T12:53:35.800Z,3.30
2019-03-19T12:56:06.093Z,2.50
2019-03-19T12:58:44.684Z,2.43
2019-03-19T13:01:15.293Z,2.50
2019-03-19T13:03:45.681Z,2.00
2019-03-19T13:06:15.901Z,1.90
2019-03-19T13:08:46.248Z,1.90
2019-03-19T13:11:16.912Z,2.20
2019-03-19T13:13:47.322Z,1.80
2019-03-19T13:16:17.568Z,1.85
2019-03-19T13:18:47.769Z,1.42
2019-03-19T13:21:18.035Z,1.50
2019-03-19T13:23:48.321Z,1.50
2019-03-19T13:26:21.760Z,1.70
2019-03-19T13:28:52.390Z,1.80
2019-03-19T13:31:26.232Z,2.87
2019-03-19T13:33:56.718Z,2.17
2019-03-19T13:36:27.035Z,2.87
2019-03-19T13:38:57.399Z,2.30
2019-03-19T13:41:28.145Z,3.40
2019-03-19T13:43:58.615Z,2.60
2019-03-19T13:46:29.552Z,3.43
2019-03-19T13:49:00.143Z,2.80
2019-03-19T13:51:31.085Z,2.63
2019-03-19T13:54:04.125Z,4.63
2019-03-19T13:56:34.280Z,2.50
2019-03-19T13:59:04.767Z,2.60
2019-03-19T14:01:35.438Z,2.87
2019-03-19T14:04:08.586Z,2.60
2019-03-19T14:06:39.030Z,2.43
2019-03-19T14:09:10.435Z,2.90
2019-03-19T14:11:40.660Z,2.63
2019-03-19T14:14:11.670Z,2.23
2019-03-19T14:16:41.945Z,4.43
2019-03-19T14:19:18.536Z,2.67
2019-03-19T14:21:50.333Z,2.47
2019-03-19T14:24:21.486Z,2.70
2019-03-19T14:26:52.262Z,2.33
2019-03-19T14:29:23.082Z,3.10
2019-03-19T14:31:53.507Z,2.60
2019-03-19T14:34:24.082Z,2.57
2019-03-19T14:36:54.268Z,5.13
2019-03-19T14:39:24.453Z,3.30
2019-03-19T14:41:54.954Z,4.57
2019-03-19T14:44:25.820Z,2.40
2019-03-19T14:46:57.744Z,3.27
2019-03-19T14:49:28.045Z,3.53
2019-03-19T14:51:58.320Z,2.50
2019-03-19T14:54:31.990Z,3.20
2019-03-19T14:57:03.623Z,2.80
2019-03-19T14:59:35.444Z,3.00
2019-03-19T15:02:07.920Z,3.40
2019-03-19T15:04:39.899Z,3.00
2019-03-19T15:07:10.160Z,2.93
2019-03-19T15:09:40.928Z,3.63
2019-03-19T15:12:11.456Z,3.70
2019-03-19T15:14:46.586Z,2.83
2019-03-19T15:17:17.917Z,3.40
2019-03-19T15:19:48.490Z,4.30
2019-03-19T15:22:19.367Z,4.10
2019-03-19T15:24:52.081Z,2.95
2019-03-19T15:27:22.619Z,2.93
2019-03-19T15:29:56.311Z,3.45
2019-03-19T15:32:29.420Z,3.40
2019-03-19T15:35:00.776Z,3.27
2019-03-19T15:37:31.565Z,4.43
2019-03-19T15:40:02.194Z,2.90
2019-03-19T15:42:32.443Z,3.70
2019-03-19T15:45:02.820Z,3.23
2019-03-19T15:47:34.627Z,2.90
2019-03-19T15:50:06.605Z,2.90
2019-03-19T15:52:39.906Z,2.97
2019-03-19T15:55:10.446Z,3.40
2019-03-19T15:57:41.211Z,2.50
2019-03-19T16:00:15.373Z,7.57
2019-03-19T16:02:45.634Z,4.30
2019-03-19T16:05:18.518Z,3.50
2019-03-19T16:07:49.651Z,3.27
2019-03-19T16:10:20.071Z,3.12
2019-03-19T16:12:52.280Z,4.13
2019-03-19T16:15:23.104Z,3.00
2019-03-19T16:17:53.558Z,2.97
2019-03-19T16:20:23.980Z,2.67
2019-03-19T16:22:55.217Z,3.50
2019-03-19T16:25:25.487Z,4.00
2019-03-19T16:27:59.130Z,3.00
2019-03-19T16:30:29.442Z,3.00
2019-03-19T16:32:59.986Z,2.90
2019-03-19T16:35:30.236Z,3.77
2019-03-19T16:38:01.004Z,3.53
2019-03-19T16:40:33.982Z,3.05
2019-03-19T16:43:04.368Z,2.60
2019-03-19T16:45:34.678Z,3.37
2019-03-19T16:48:05.107Z,3.10
2019-03-19T16:50:38.087Z,3.10
2019-03-19T16:53:08.740Z,3.20
2019-03-19T16:55:39.305Z,3.02
2019-03-19T16:58:09.640Z,2.70
2019-03-19T17:00:40.360Z,3.50
2019-03-19T17:03:12.565Z,3.30
2019-03-19T17:05:42.864Z,2.47
2019-03-19T17:08:13.141Z,3.50
2019-03-19T17:10:43.517Z,2.80
2019-03-19T17:13:14.221Z,2.70
2019-03-19T17:15:44.597Z,2.97
2019-03-19T17:18:16.899Z,3.40
2019-03-19T17:20:47.088Z,2.70
2019-03-19T17:23:17.571Z,2.65
2019-03-19T17:25:47.829Z,3.20
2019-03-19T17:28:22.660Z,2.93
2019-03-19T17:30:51.044Z,4.37
2019-03-19T17:33:21.574Z,2.80
2019-03-19T17:35:52.308Z,3.30
2019-03-19T17:38:22.628Z,2.47
2019-03-19T17:40:52.976Z,2.70
2019-03-19T17:43:23.458Z,2.30
2019-03-19T17:45:56.439Z,3.87
2019-03-19T17:48:27.047Z,2.70
2019-03-19T17:50:57.630Z,5.17
2019-03-19T17:53:28.103Z,4.90
2019-03-19T17:55:58.760Z,7.90
2019-03-19T17:58:29.009Z,7.20
2019-03-19T18:00:59.363Z,9.30
2019-03-19T18:03:30.276Z,11.53
2019-03-19T18:06:00.580Z,14.27
2019-03-19T18:08:30.922Z,14.40
2019-03-19T18:11:01.515Z,17.50
2019-03-19T18:13:31.801Z,12.50
2019-03-19T18:16:05.114Z,11.90
2019-03-19T18:18:35.659Z,10.17
2019-03-19T18:21:06.582Z,12.00
2019-03-19T18:23:36.915Z,11.30
2019-03-19T18:26:09.382Z,9.30
2019-03-19T18:28:39.885Z,9.67
2019-03-19T18:31:10.547Z,9.90
2019-03-19T18:33:41.216Z,8.27
2019-03-19T18:36:11.511Z,6.20
2019-03-19T18:38:42.002Z,3.97
2019-03-19T18:41:15.051Z,4.07
2019-03-19T18:43:45.975Z,4.00
2019-03-19T18:46:17.137Z,3.43
2019-03-19T18:48:48.640Z,3.27
2019-03-19T18:51:19.420Z,4.60
2019-03-19T18:53:49.822Z,3.60
2019-03-19T18:56:20.366Z,4.83
2019-03-19T18:58:51.715Z,5.10
2019-03-19T19:01:22.320Z,5.17
2019-03-19T19:03:52.759Z,4.20
2019-03-19T19:06:23.088Z,4.03
2019-03-19T19:08:53.861Z,2.97
2019-03-19T19:11:24.779Z,3.80
2019-03-19T19:13:55.212Z,4.13
2019-03-19T19:16:25.589Z,3.20
2019-03-19T19:18:58.662Z,2.70
2019-03-19T19:21:29.017Z,2.73
2019-03-19T19:23:59.464Z,2.90
2019-03-19T19:26:30.014Z,3.60
2019-03-19T19:29:00.483Z,4.20
2019-03-19T19:31:31.187Z,3.70
2019-03-19T19:34:01.878Z,3.50
2019-03-19T19:36:32.342Z,3.50
2019-03-19T19:39:03.195Z,3.90
2019-03-19T19:41:35.505Z,3.13
2019-03-19T19:44:06.468Z,3.40
2019-03-19T19:46:39.817Z,2.73
2019-03-19T19:49:10.160Z,2.80
2019-03-19T19:51:40.937Z,3.00
2019-03-19T19:54:11.442Z,2.93
2019-03-19T19:56:42.318Z,3.20
2019-03-19T19:59:12.755Z,3.27
2019-03-19T20:01:47.209Z,3.30
2019-03-19T20:04:17.902Z,4.47
2019-03-19T20:06:48.512Z,3.53
2019-03-19T20:09:19.071Z,3.87
2019-03-19T20:11:49.401Z,4.90
2019-03-19T20:14:19.705Z,3.40
2019-03-19T20:16:51.382Z,3.60
2019-03-19T20:19:23.689Z,4.80
2019-03-19T20:21:55.661Z,2.50
2019-03-19T20:24:26.236Z,3.77
2019-03-19T20:26:56.988Z,3.00
2019-03-19T20:29:27.458Z,2.57
2019-03-19T20:31:58.160Z,2.63
2019-03-19T20:34:30.609Z,2.63
2019-03-19T20:41:01.260Z,3.03
2019-03-19T20:43:32.187Z,2.63
2019-03-19T20:46:04.081Z,2.03
2019-03-19T20:48:35.997Z,3.03
2019-03-19T20:51:07.315Z,3.00
2019-03-19T20:53:37.851Z,2.63
2019-03-19T20:56:09.949Z,2.90
2019-03-19T20:58:43.766Z,2.50
2019-03-19T21:01:12.644Z,2.60
2019-03-19T21:03:43.605Z,2.10
2019-03-19T21:06:15.675Z,3.17
2019-03-19T21:08:46.100Z,3.57
2019-03-19T21:11:16.885Z,5.37
2019-03-19T21:13:49.150Z,4.90
2019-03-19T21:16:20.079Z,5.03
2019-03-19T21:18:50.589Z,3.90
2019-03-19T21:21:21.051Z,4.63
2019-03-19T21:23:51.695Z,3.75
2019-03-19T21:26:22.199Z,3.17
2019-03-19T21:28:52.467Z,3.40
2019-03-19T21:31:22.906Z,3.10
2019-03-19T21:33:53.875Z,3.53
2019-03-19T21:36:24.587Z,2.27
2019-03-19T21:38:56.258Z,2.63
2019-03-19T21:41:27.070Z,3.47
2019-03-19T21:44:00.014Z,2.70
2019-03-19T21:46:30.493Z,3.07
2019-03-19T21:49:01.772Z,2.70
2019-03-19T21:51:33.122Z,2.33
2019-03-19T21:54:03.736Z,2.67
2019-03-19T21:56:34.215Z,2.17
2019-03-19T21:59:05.396Z,2.20
2019-03-19T22:01:35.946Z,2.43
2019-03-19T22:04:06.736Z,2.07
2019-03-19T22:06:37.179Z,2.00
2019-03-19T22:09:07.972Z,2.17
2019-03-19T22:11:38.505Z,2.00
2019-03-19T22:14:09.201Z,2.20
2019-03-19T22:16:39.942Z,3.20
2019-03-19T22:19:18.711Z,2.43
2019-03-19T22:21:52.886Z,2.73
2019-03-19T22:24:25.286Z,2.23
2019-03-19T22:26:55.767Z,1.97
2019-03-19T22:29:26.328Z,2.13
2019-03-19T22:31:56.486Z,3.00
2019-03-19T22:34:26.628Z,2.33
2019-03-19T22:36:57.321Z,2.20
2019-03-19T22:39:27.881Z,2.60
2019-03-19T22:41:58.406Z,2.13
2019-03-19T22:44:33.006Z,2.83
2019-03-19T22:47:03.526Z,2.90
2019-03-19T22:49:37.811Z,3.00
2019-03-19T22:52:11.049Z,1.97
2019-03-19T22:54:41.239Z,2.47
2019-03-19T22:57:12.018Z,2.57
2019-03-19T22:59:44.942Z,3.17
2019-03-19T23:02:19.303Z,2.65
2019-03-19T23:04:50.640Z,2.90
2019-03-19T23:07:21.042Z,3.00
2019-03-19T23:09:51.781Z,4.03
2019-03-19T23:12:24.686Z,4.17
2019-03-19T23:14:55.633Z,3.30
2019-03-19T23:17:26.034Z,2.70
2019-03-19T23:19:57.498Z,3.00
2019-03-19T23:22:28.068Z,2.50
2019-03-19T23:24:59.717Z,2.67
2019-03-19T23:27:30.265Z,3.10
2019-03-19T23:30:00.475Z,2.40
2019-03-19T23:32:31.192Z,2.77
2019-03-19T23:35:01.627Z,2.83
2019-03-19T23:37:33.885Z,2.63
2019-03-19T23:40:04.767Z,2.40
2019-03-19T23:42:37.252Z,2.50
2019-03-19T23:45:09.282Z,2.70
2019-03-19T23:47:39.519Z,3.37
2019-03-19T23:50:12.577Z,3.30
2019-03-19T23:52:45.080Z,2.90
2019-03-19T23:55:16.694Z,2.67
2019-03-19T23:57:49.501Z,2.50
